sensor_id;sensor_type;location;lat;lon;timestamp;P1;durP1;ratioP1;P2;durP2;ratioP2
20076;SDS011;12348;42.710;23.378;2022-09-09T00:01:11;6.90;;;5.77;;
20076;SDS011;12348;42.710;23.378;2022-09-09T00:03:54;6.27;;;5.60;;
20076;SDS011;12348;42.710;23.378;2022-09-09T00:06:27;12.57;;;6.00;;
20076;SDS011;12348;42.710;23.378;2022-09-09T00:09:00;7.50;;;5.80;;
20076;SDS011;12348;42.710;23.378;2022-09-09T00:11:36;7.13;;;5.53;;
20076;SDS011;12348;42.710;23.378;2022-09-09T00:14:08;8.23;;;5.67;;
20076;SDS011;12348;42.710;23.378;2022-09-09T00:16:45;7.30;;;5.70;;
20076;SDS011;12348;42.710;23.378;2022-09-09T00:19:22;11.63;;;5.83;;
20076;SDS011;12348;42.710;23.378;2022-09-09T00:21:53;6.40;;;5.77;;
20076;SDS011;12348;42.710;23.378;2022-09-09T00:24:27;8.40;;;6.10;;
20076;SDS011;12348;42.710;23.378;2022-09-09T00:27:00;7.60;;;6.17;;
20076;SDS011;12348;42.710;23.378;2022-09-09T00:29:33;6.97;;;6.27;;
20076;SDS011;12348;42.710;23.378;2022-09-09T00:32:13;8.63;;;6.10;;
20076;SDS011;12348;42.710;23.378;2022-09-09T00:34:46;7.87;;;6.00;;
20076;SDS011;12348;42.710;23.378;2022-09-09T00:37:15;8.53;;;6.57;;
20076;SDS011;12348;42.710;23.378;2022-09-09T00:39:44;7.40;;;6.50;;
20076;SDS011;12348;42.710;23.378;2022-09-09T00:42:14;9.47;;;6.43;;
20076;SDS011;12348;42.710;23.378;2022-09-09T00:47:38;10.27;;;7.40;;
20076;SDS011;12348;42.710;23.378;2022-09-09T00:50:15;8.67;;;6.23;;
20076;SDS011;12348;42.710;23.378;2022-09-09T00:52:56;9.33;;;6.63;;
20076;SDS011;12348;42.710;23.378;2022-09-09T00:55:34;7.60;;;6.77;;
20076;SDS011;12348;42.710;23.378;2022-09-09T00:58:07;10.03;;;7.43;;
20076;SDS011;12348;42.710;23.378;2022-09-09T01:00:35;8.93;;;6.87;;
20076;SDS011;12348;42.710;23.378;2022-09-09T01:06:11;10.93;;;6.97;;
20076;SDS011;12348;42.710;23.378;2022-09-09T01:08:45;7.53;;;6.53;;
20076;SDS011;12348;42.710;23.378;2022-09-09T01:11:25;7.90;;;7.10;;
20076;SDS011;12348;42.710;23.378;2022-09-09T01:14:11;10.23;;;7.50;;
20076;SDS011;12348;42.710;23.378;2022-09-09T01:16:46;10.10;;;7.50;;
20076;SDS011;12348;42.710;23.378;2022-09-09T01:19:17;9.47;;;6.60;;
20076;SDS011;12348;42.710;23.378;2022-09-09T01:21:54;7.77;;;6.97;;
20076;SDS011;12348;42.710;23.378;2022-09-09T01:24:30;8.83;;;7.23;;
20076;SDS011;12348;42.710;23.378;2022-09-09T01:27:06;9.57;;;6.80;;
20076;SDS011;12348;42.710;23.378;2022-09-09T01:29:36;7.10;;;6.40;;
20076;SDS011;12348;42.710;23.378;2022-09-09T01:35:06;8.27;;;6.57;;
20076;SDS011;12348;42.710;23.378;2022-09-09T01:37:36;10.97;;;6.90;;
20076;SDS011;12348;42.710;23.378;2022-09-09T01:40:04;8.23;;;6.30;;
20076;SDS011;12348;42.710;23.378;2022-09-09T01:42:32;8.67;;;7.47;;
20076;SDS011;12348;42.710;23.378;2022-09-09T01:44:59;8.57;;;7.30;;
20076;SDS011;12348;42.710;23.378;2022-09-09T01:47:26;7.50;;;6.70;;
20076;SDS011;12348;42.710;23.378;2022-09-09T01:49:53;8.70;;;7.33;;
20076;SDS011;12348;42.710;23.378;2022-09-09T01:52:20;10.60;;;7.37;;
20076;SDS011;12348;42.710;23.378;2022-09-09T01:54:47;9.23;;;7.23;;
20076;SDS011;12348;42.710;23.378;2022-09-09T01:57:15;13.17;;;7.23;;
20076;SDS011;12348;42.710;23.378;2022-09-09T01:59:51;13.63;;;7.17;;
20076;SDS011;12348;42.710;23.378;2022-09-09T02:02:29;8.63;;;6.60;;
20076;SDS011;12348;42.710;23.378;2022-09-09T02:05:01;8.10;;;6.97;;
20076;SDS011;12348;42.710;23.378;2022-09-09T02:07:38;12.23;;;7.80;;
20076;SDS011;12348;42.710;23.378;2022-09-09T02:10:09;8.37;;;7.40;;
20076;SDS011;12348;42.710;23.378;2022-09-09T02:12:42;7.80;;;6.33;;
20076;SDS011;12348;42.710;23.378;2022-09-09T02:15:16;11.20;;;7.43;;
20076;SDS011;12348;42.710;23.378;2022-09-09T02:17:47;10.63;;;7.57;;
20076;SDS011;12348;42.710;23.378;2022-09-09T02:20:18;9.13;;;7.17;;
20076;SDS011;12348;42.710;23.378;2022-09-09T02:22:47;9.67;;;7.47;;
20076;SDS011;12348;42.710;23.378;2022-09-09T02:25:17;8.10;;;7.30;;
20076;SDS011;12348;42.710;23.378;2022-09-09T02:27:47;11.60;;;8.10;;
20076;SDS011;12348;42.710;23.378;2022-09-09T02:30:16;9.83;;;7.67;;
20076;SDS011;12348;42.710;23.378;2022-09-09T02:32:44;7.63;;;6.70;;
20076;SDS011;12348;42.710;23.378;2022-09-09T02:35:15;9.00;;;7.50;;
20076;SDS011;12348;42.710;23.378;2022-09-09T02:37:46;9.60;;;7.93;;
20076;SDS011;12348;42.710;23.378;2022-09-09T02:40:13;8.97;;;7.43;;
20076;SDS011;12348;42.710;23.378;2022-09-09T02:42:42;15.30;;;9.43;;
20076;SDS011;12348;42.710;23.378;2022-09-09T02:45:10;15.53;;;12.13;;
20076;SDS011;12348;42.710;23.378;2022-09-09T02:47:43;21.63;;;15.37;;
20076;SDS011;12348;42.710;23.378;2022-09-09T02:50:17;14.53;;;10.67;;
20076;SDS011;12348;42.710;23.378;2022-09-09T02:52:53;11.73;;;9.03;;
20076;SDS011;12348;42.710;23.378;2022-09-09T02:55:29;17.47;;;13.20;;
20076;SDS011;12348;42.710;23.378;2022-09-09T02:58:04;13.60;;;11.07;;
20076;SDS011;12348;42.710;23.378;2022-09-09T03:00:32;14.27;;;10.50;;
20076;SDS011;12348;42.710;23.378;2022-09-09T03:03:02;15.03;;;11.50;;
20076;SDS011;12348;42.710;23.378;2022-09-09T03:05:30;16.27;;;11.83;;
20076;SDS011;12348;42.710;23.378;2022-09-09T03:07:57;14.17;;;10.20;;
20076;SDS011;12348;42.710;23.378;2022-09-09T03:10:24;17.87;;;11.87;;
20076;SDS011;12348;42.710;23.378;2022-09-09T03:12:50;17.03;;;12.67;;
20076;SDS011;12348;42.710;23.378;2022-09-09T03:15:17;26.07;;;16.83;;
20076;SDS011;12348;42.710;23.378;2022-09-09T03:17:44;24.07;;;15.27;;
20076;SDS011;12348;42.710;23.378;2022-09-09T03:20:13;13.97;;;11.37;;
20076;SDS011;12348;42.710;23.378;2022-09-09T03:22:40;12.57;;;10.67;;
20076;SDS011;12348;42.710;23.378;2022-09-09T03:25:07;18.93;;;13.13;;
20076;SDS011;12348;42.710;23.378;2022-09-09T03:27:34;18.43;;;12.00;;
20076;SDS011;12348;42.710;23.378;2022-09-09T03:30:01;13.83;;;11.13;;
20076;SDS011;12348;42.710;23.378;2022-09-09T03:32:28;17.83;;;11.70;;
20076;SDS011;12348;42.710;23.378;2022-09-09T03:34:56;15.60;;;11.23;;
20076;SDS011;12348;42.710;23.378;2022-09-09T03:37:24;19.53;;;13.30;;
20076;SDS011;12348;42.710;23.378;2022-09-09T03:39:51;16.90;;;12.57;;
20076;SDS011;12348;42.710;23.378;2022-09-09T03:42:19;16.60;;;11.90;;
20076;SDS011;12348;42.710;23.378;2022-09-09T03:44:46;16.40;;;12.60;;
20076;SDS011;12348;42.710;23.378;2022-09-09T03:47:15;16.37;;;12.70;;
20076;SDS011;12348;42.710;23.378;2022-09-09T03:49:43;15.83;;;12.10;;
20076;SDS011;12348;42.710;23.378;2022-09-09T03:52:10;18.20;;;12.17;;
20076;SDS011;12348;42.710;23.378;2022-09-09T03:54:38;18.90;;;12.83;;
20076;SDS011;12348;42.710;23.378;2022-09-09T03:57:07;16.43;;;12.70;;
20076;SDS011;12348;42.710;23.378;2022-09-09T03:59:35;17.93;;;12.73;;
20076;SDS011;12348;42.710;23.378;2022-09-09T04:02:01;19.53;;;13.47;;
20076;SDS011;12348;42.710;23.378;2022-09-09T04:04:28;17.27;;;12.80;;
20076;SDS011;12348;42.710;23.378;2022-09-09T04:06:55;20.67;;;14.47;;
20076;SDS011;12348;42.710;23.378;2022-09-09T04:09:22;19.87;;;14.30;;
20076;SDS011;12348;42.710;23.378;2022-09-09T04:11:50;19.40;;;11.67;;
20076;SDS011;12348;42.710;23.378;2022-09-09T04:14:18;21.87;;;13.73;;
20076;SDS011;12348;42.710;23.378;2022-09-09T04:16:44;17.20;;;13.47;;
20076;SDS011;12348;42.710;23.378;2022-09-09T04:19:11;22.60;;;12.53;;
20076;SDS011;12348;42.710;23.378;2022-09-09T04:21:39;21.13;;;12.93;;
20076;SDS011;12348;42.710;23.378;2022-09-09T04:24:06;20.57;;;11.47;;
20076;SDS011;12348;42.710;23.378;2022-09-09T04:26:34;20.47;;;9.93;;
20076;SDS011;12348;42.710;23.378;2022-09-09T04:29:02;17.73;;;11.07;;
20076;SDS011;12348;42.710;23.378;2022-09-09T04:31:30;13.80;;;10.33;;
20076;SDS011;12348;42.710;23.378;2022-09-09T04:33:57;17.87;;;11.27;;
20076;SDS011;12348;42.710;23.378;2022-09-09T04:36:27;15.20;;;9.97;;
20076;SDS011;12348;42.710;23.378;2022-09-09T04:38:54;17.40;;;10.57;;
20076;SDS011;12348;42.710;23.378;2022-09-09T04:41:20;20.63;;;10.73;;
20076;SDS011;12348;42.710;23.378;2022-09-09T04:43:47;15.77;;;10.03;;
20076;SDS011;12348;42.710;23.378;2022-09-09T04:46:15;14.70;;;10.20;;
20076;SDS011;12348;42.710;23.378;2022-09-09T04:48:42;15.17;;;9.37;;
20076;SDS011;12348;42.710;23.378;2022-09-09T04:51:11;20.10;;;11.23;;
20076;SDS011;12348;42.710;23.378;2022-09-09T04:53:38;11.90;;;8.03;;
20076;SDS011;12348;42.710;23.378;2022-09-09T04:56:06;12.53;;;8.10;;
20076;SDS011;12348;42.710;23.378;2022-09-09T04:58:35;13.53;;;7.70;;
20076;SDS011;12348;42.710;23.378;2022-09-09T05:01:03;15.00;;;9.17;;
20076;SDS011;12348;42.710;23.378;2022-09-09T05:03:32;10.47;;;7.57;;
20076;SDS011;12348;42.710;23.378;2022-09-09T05:06:02;8.27;;;7.00;;
20076;SDS011;12348;42.710;23.378;2022-09-09T05:08:31;10.80;;;6.87;;
20076;SDS011;12348;42.710;23.378;2022-09-09T05:10:57;13.93;;;7.93;;
20076;SDS011;12348;42.710;23.378;2022-09-09T05:13:25;9.80;;;8.27;;
20076;SDS011;12348;42.710;23.378;2022-09-09T05:15:52;15.03;;;7.97;;
20076;SDS011;12348;42.710;23.378;2022-09-09T05:18:20;11.97;;;7.60;;
20076;SDS011;12348;42.710;23.378;2022-09-09T05:20:48;12.83;;;8.10;;
20076;SDS011;12348;42.710;23.378;2022-09-09T05:23:16;9.37;;;7.10;;
20076;SDS011;12348;42.710;23.378;2022-09-09T05:25:43;12.90;;;7.47;;
20076;SDS011;12348;42.710;23.378;2022-09-09T05:28:11;11.33;;;7.47;;
20076;SDS011;12348;42.710;23.378;2022-09-09T05:30:38;14.97;;;8.53;;
20076;SDS011;12348;42.710;23.378;2022-09-09T05:33:05;11.07;;;7.47;;
20076;SDS011;12348;42.710;23.378;2022-09-09T05:35:34;14.60;;;7.30;;
20076;SDS011;12348;42.710;23.378;2022-09-09T05:38:02;9.03;;;6.87;;
20076;SDS011;12348;42.710;23.378;2022-09-09T05:40:32;9.80;;;7.30;;
20076;SDS011;12348;42.710;23.378;2022-09-09T05:42:59;8.47;;;7.27;;
20076;SDS011;12348;42.710;23.378;2022-09-09T05:45:27;7.90;;;6.57;;
20076;SDS011;12348;42.710;23.378;2022-09-09T05:47:54;13.70;;;7.43;;
20076;SDS011;12348;42.710;23.378;2022-09-09T05:50:22;11.67;;;7.07;;
20076;SDS011;12348;42.710;23.378;2022-09-09T05:52:49;7.87;;;6.70;;
20076;SDS011;12348;42.710;23.378;2022-09-09T05:55:17;13.10;;;7.10;;
20076;SDS011;12348;42.710;23.378;2022-09-09T05:57:47;9.23;;;8.17;;
20076;SDS011;12348;42.710;23.378;2022-09-09T06:00:17;10.93;;;6.90;;
20076;SDS011;12348;42.710;23.378;2022-09-09T06:02:49;7.03;;;6.20;;
20076;SDS011;12348;42.710;23.378;2022-09-09T06:05:17;9.00;;;6.47;;
20076;SDS011;12348;42.710;23.378;2022-09-09T06:07:44;8.63;;;6.30;;
20076;SDS011;12348;42.710;23.378;2022-09-09T06:10:11;8.80;;;6.13;;
20076;SDS011;12348;42.710;23.378;2022-09-09T06:12:41;7.87;;;6.80;;
20076;SDS011;12348;42.710;23.378;2022-09-09T06:15:08;9.00;;;6.57;;
20076;SDS011;12348;42.710;23.378;2022-09-09T06:17:35;9.80;;;5.93;;
20076;SDS011;12348;42.710;23.378;2022-09-09T06:20:04;8.27;;;5.60;;
20076;SDS011;12348;42.710;23.378;2022-09-09T06:22:31;7.17;;;5.03;;
20076;SDS011;12348;42.710;23.378;2022-09-09T06:24:58;8.67;;;5.53;;
20076;SDS011;12348;42.710;23.378;2022-09-09T06:27:26;11.13;;;5.80;;
20076;SDS011;12348;42.710;23.378;2022-09-09T06:29:55;6.70;;;5.13;;
20076;SDS011;12348;42.710;23.378;2022-09-09T06:32:22;7.43;;;5.83;;
20076;SDS011;12348;42.710;23.378;2022-09-09T06:34:49;8.00;;;5.60;;
20076;SDS011;12348;42.710;23.378;2022-09-09T06:37:16;8.13;;;5.80;;
20076;SDS011;12348;42.710;23.378;2022-09-09T06:39:42;5.80;;;4.83;;
20076;SDS011;12348;42.710;23.378;2022-09-09T06:42:09;5.83;;;4.47;;
20076;SDS011;12348;42.710;23.378;2022-09-09T06:44:36;6.90;;;4.05;;
20076;SDS011;12348;42.710;23.378;2022-09-09T06:47:05;9.15;;;4.22;;
20076;SDS011;12348;42.710;23.378;2022-09-09T06:49:32;4.60;;;3.95;;
20076;SDS011;12348;42.710;23.378;2022-09-09T06:52:00;5.20;;;4.30;;
20076;SDS011;12348;42.710;23.378;2022-09-09T06:54:27;5.05;;;4.00;;
20076;SDS011;12348;42.710;23.378;2022-09-09T06:56:53;5.15;;;3.90;;
20076;SDS011;12348;42.710;23.378;2022-09-09T06:59:20;8.63;;;4.85;;
20076;SDS011;12348;42.710;23.378;2022-09-09T07:01:47;6.35;;;4.38;;
20076;SDS011;12348;42.710;23.378;2022-09-09T07:04:15;11.10;;;6.25;;
20076;SDS011;12348;42.710;23.378;2022-09-09T07:06:43;5.40;;;3.17;;
20076;SDS011;12348;42.710;23.378;2022-09-09T07:09:12;4.20;;;3.20;;
20076;SDS011;12348;42.710;23.378;2022-09-09T07:11:40;5.30;;;3.65;;
20076;SDS011;12348;42.710;23.378;2022-09-09T07:14:08;5.40;;;3.47;;
20076;SDS011;12348;42.710;23.378;2022-09-09T07:16:37;6.60;;;3.97;;
20076;SDS011;12348;42.710;23.378;2022-09-09T07:19:04;5.07;;;3.13;;
20076;SDS011;12348;42.710;23.378;2022-09-09T07:21:33;5.95;;;3.20;;
20076;SDS011;12348;42.710;23.378;2022-09-09T07:24:00;4.57;;;3.33;;
20076;SDS011;12348;42.710;23.378;2022-09-09T07:26:28;8.38;;;3.80;;
20076;SDS011;12348;42.710;23.378;2022-09-09T07:28:56;4.43;;;3.10;;
20076;SDS011;12348;42.710;23.378;2022-09-09T07:31:23;4.07;;;3.23;;
20076;SDS011;12348;42.710;23.378;2022-09-09T07:33:51;4.03;;;3.40;;
20076;SDS011;12348;42.710;23.378;2022-09-09T07:36:19;4.63;;;3.20;;
20076;SDS011;12348;42.710;23.378;2022-09-09T07:38:49;4.47;;;3.43;;
20076;SDS011;12348;42.710;23.378;2022-09-09T07:41:18;4.70;;;3.10;;
20076;SDS011;12348;42.710;23.378;2022-09-09T07:43:47;3.50;;;3.20;;
20076;SDS011;12348;42.710;23.378;2022-09-09T07:46:15;4.43;;;3.03;;
20076;SDS011;12348;42.710;23.378;2022-09-09T07:48:44;3.63;;;3.00;;
20076;SDS011;12348;42.710;23.378;2022-09-09T07:51:13;9.25;;;3.13;;
20076;SDS011;12348;42.710;23.378;2022-09-09T07:53:44;7.27;;;3.60;;
20076;SDS011;12348;42.710;23.378;2022-09-09T07:56:13;4.83;;;2.83;;
20076;SDS011;12348;42.710;23.378;2022-09-09T07:58:42;6.27;;;3.93;;
20076;SDS011;12348;42.710;23.378;2022-09-09T08:01:17;5.45;;;3.55;;
20076;SDS011;12348;42.710;23.378;2022-09-09T08:03:45;6.35;;;4.50;;
20076;SDS011;12348;42.710;23.378;2022-09-09T08:06:13;4.13;;;3.10;;
20076;SDS011;12348;42.710;23.378;2022-09-09T08:08:40;4.97;;;3.05;;
20076;SDS011;12348;42.710;23.378;2022-09-09T08:11:09;3.60;;;3.30;;
20076;SDS011;12348;42.710;23.378;2022-09-09T08:13:40;3.63;;;3.17;;
20076;SDS011;12348;42.710;23.378;2022-09-09T08:16:10;4.90;;;3.80;;
20076;SDS011;12348;42.710;23.378;2022-09-09T08:18:38;7.32;;;4.75;;
20076;SDS011;12348;42.710;23.378;2022-09-09T08:21:09;4.70;;;3.03;;
20076;SDS011;12348;42.710;23.378;2022-09-09T08:23:38;7.13;;;3.97;;
20076;SDS011;12348;42.710;23.378;2022-09-09T08:26:06;6.35;;;3.72;;
20076;SDS011;12348;42.710;23.378;2022-09-09T08:28:35;3.85;;;3.45;;
20076;SDS011;12348;42.710;23.378;2022-09-09T08:31:11;6.90;;;5.30;;
20076;SDS011;12348;42.710;23.378;2022-09-09T08:33:39;5.75;;;4.47;;
20076;SDS011;12348;42.710;23.378;2022-09-09T08:36:08;5.80;;;3.83;;
20076;SDS011;12348;42.710;23.378;2022-09-09T08:38:36;5.00;;;3.42;;
20076;SDS011;12348;42.710;23.378;2022-09-09T08:41:07;3.85;;;3.45;;
20076;SDS011;12348;42.710;23.378;2022-09-09T08:43:47;6.38;;;3.55;;
20076;SDS011;12348;42.710;23.378;2022-09-09T08:46:19;5.80;;;3.73;;
20076;SDS011;12348;42.710;23.378;2022-09-09T08:48:53;8.37;;;4.13;;
20076;SDS011;12348;42.710;23.378;2022-09-09T08:51:26;6.17;;;4.23;;
20076;SDS011;12348;42.710;23.378;2022-09-09T08:53:57;7.23;;;3.97;;
20076;SDS011;12348;42.710;23.378;2022-09-09T08:56:28;4.80;;;3.47;;
20076;SDS011;12348;42.710;23.378;2022-09-09T08:58:59;5.43;;;3.50;;
20076;SDS011;12348;42.710;23.378;2022-09-09T09:01:41;4.57;;;3.80;;
20076;SDS011;12348;42.710;23.378;2022-09-09T09:04:24;4.05;;;3.65;;
20076;SDS011;12348;42.710;23.378;2022-09-09T09:07:02;6.13;;;4.88;;
20076;SDS011;12348;42.710;23.378;2022-09-09T09:09:41;5.00;;;3.67;;
20076;SDS011;12348;42.710;23.378;2022-09-09T09:12:24;5.03;;;4.28;;
20076;SDS011;12348;42.710;23.378;2022-09-09T09:14:55;6.35;;;4.07;;
20076;SDS011;12348;42.710;23.378;2022-09-09T09:17:24;6.30;;;3.65;;
20076;SDS011;12348;42.710;23.378;2022-09-09T09:19:55;5.10;;;3.90;;
20076;SDS011;12348;42.710;23.378;2022-09-09T09:22:22;10.33;;;6.43;;
20076;SDS011;12348;42.710;23.378;2022-09-09T09:25:00;5.43;;;3.80;;
20076;SDS011;12348;42.710;23.378;2022-09-09T09:27:33;7.15;;;3.85;;
20076;SDS011;12348;42.710;23.378;2022-09-09T09:30:02;6.10;;;4.50;;
20076;SDS011;12348;42.710;23.378;2022-09-09T09:32:43;8.70;;;5.37;;
20076;SDS011;12348;42.710;23.378;2022-09-09T09:35:15;8.97;;;6.30;;
20076;SDS011;12348;42.710;23.378;2022-09-09T09:37:42;6.03;;;4.80;;
20076;SDS011;12348;42.710;23.378;2022-09-09T09:40:11;7.63;;;4.37;;
20076;SDS011;12348;42.710;23.378;2022-09-09T09:42:47;9.97;;;6.80;;
20076;SDS011;12348;42.710;23.378;2022-09-09T09:45:16;5.40;;;4.17;;
20076;SDS011;12348;42.710;23.378;2022-09-09T09:47:58;5.97;;;3.70;;
20076;SDS011;12348;42.710;23.378;2022-09-09T09:50:28;5.00;;;4.10;;
20076;SDS011;12348;42.710;23.378;2022-09-09T09:52:56;5.63;;;4.83;;
20076;SDS011;12348;42.710;23.378;2022-09-09T09:55:25;7.17;;;5.13;;
20076;SDS011;12348;42.710;23.378;2022-09-09T09:57:52;7.60;;;5.63;;
20076;SDS011;12348;42.710;23.378;2022-09-09T10:00:20;7.27;;;4.23;;
20076;SDS011;12348;42.710;23.378;2022-09-09T10:02:48;7.67;;;4.83;;
20076;SDS011;12348;42.710;23.378;2022-09-09T10:05:19;8.23;;;5.23;;
20076;SDS011;12348;42.710;23.378;2022-09-09T10:07:47;10.10;;;6.30;;
20076;SDS011;12348;42.710;23.378;2022-09-09T10:10:30;10.20;;;6.07;;
20076;SDS011;12348;42.710;23.378;2022-09-09T10:13:08;6.27;;;4.13;;
20076;SDS011;12348;42.710;23.378;2022-09-09T10:15:44;5.90;;;5.23;;
20076;SDS011;12348;42.710;23.378;2022-09-09T10:18:25;4.83;;;4.07;;
20076;SDS011;12348;42.710;23.378;2022-09-09T10:21:06;7.93;;;4.70;;
20076;SDS011;12348;42.710;23.378;2022-09-09T10:23:46;10.00;;;6.43;;
20076;SDS011;12348;42.710;23.378;2022-09-09T10:26:29;12.20;;;7.53;;
20076;SDS011;12348;42.710;23.378;2022-09-09T10:29:25;7.17;;;4.00;;
20076;SDS011;12348;42.710;23.378;2022-09-09T10:32:06;7.57;;;6.07;;
20076;SDS011;12348;42.710;23.378;2022-09-09T10:34:58;7.77;;;6.37;;
20076;SDS011;12348;42.710;23.378;2022-09-09T10:37:36;8.07;;;6.23;;
20076;SDS011;12348;42.710;23.378;2022-09-09T10:40:23;7.73;;;5.10;;
20076;SDS011;12348;42.710;23.378;2022-09-09T10:42:59;7.90;;;5.27;;
20076;SDS011;12348;42.710;23.378;2022-09-09T10:45:35;9.60;;;5.30;;
20076;SDS011;12348;42.710;23.378;2022-09-09T10:48:15;11.00;;;6.33;;
20076;SDS011;12348;42.710;23.378;2022-09-09T10:50:57;8.60;;;5.47;;
20076;SDS011;12348;42.710;23.378;2022-09-09T10:53:37;9.03;;;6.23;;
20076;SDS011;12348;42.710;23.378;2022-09-09T10:56:13;8.67;;;5.20;;
20076;SDS011;12348;42.710;23.378;2022-09-09T10:58:44;5.20;;;4.60;;
20076;SDS011;12348;42.710;23.378;2022-09-09T11:01:16;7.17;;;5.67;;
20076;SDS011;12348;42.710;23.378;2022-09-09T11:03:49;4.80;;;4.27;;
20076;SDS011;12348;42.710;23.378;2022-09-09T11:06:22;8.93;;;7.00;;
20076;SDS011;12348;42.710;23.378;2022-09-09T11:08:55;11.63;;;6.77;;
20076;SDS011;12348;42.710;23.378;2022-09-09T11:11:27;13.80;;;8.93;;
20076;SDS011;12348;42.710;23.378;2022-09-09T11:13:59;9.17;;;6.57;;
20076;SDS011;12348;42.710;23.378;2022-09-09T11:16:30;10.40;;;6.90;;
20076;SDS011;12348;42.710;23.378;2022-09-09T11:19:10;9.10;;;6.23;;
20076;SDS011;12348;42.710;23.378;2022-09-09T11:21:42;16.57;;;10.80;;
20076;SDS011;12348;42.710;23.378;2022-09-09T11:24:13;8.87;;;5.90;;
20076;SDS011;12348;42.710;23.378;2022-09-09T11:26:47;12.50;;;8.93;;
20076;SDS011;12348;42.710;23.378;2022-09-09T11:29:38;11.53;;;7.63;;
20076;SDS011;12348;42.710;23.378;2022-09-09T11:32:52;12.07;;;7.53;;
20076;SDS011;12348;42.710;23.378;2022-09-09T11:35:33;9.90;;;6.27;;
20076;SDS011;12348;42.710;23.378;2022-09-09T11:38:15;16.03;;;10.17;;
20076;SDS011;12348;42.710;23.378;2022-09-09T11:40:47;10.10;;;7.13;;
20076;SDS011;12348;42.710;23.378;2022-09-09T11:43:23;10.47;;;6.87;;
20076;SDS011;12348;42.710;23.378;2022-09-09T11:45:54;8.60;;;6.57;;
20076;SDS011;12348;42.710;23.378;2022-09-09T11:48:26;11.00;;;6.77;;
20076;SDS011;12348;42.710;23.378;2022-09-09T11:50:58;9.40;;;6.47;;
20076;SDS011;12348;42.710;23.378;2022-09-09T11:53:26;12.87;;;6.67;;
20076;SDS011;12348;42.710;23.378;2022-09-09T11:56:04;9.33;;;6.80;;
20076;SDS011;12348;42.710;23.378;2022-09-09T11:58:36;13.83;;;9.50;;
20076;SDS011;12348;42.710;23.378;2022-09-09T12:04:12;6.97;;;6.00;;
20076;SDS011;12348;42.710;23.378;2022-09-09T12:06:54;17.90;;;7.30;;
20076;SDS011;12348;42.710;23.378;2022-09-09T12:09:28;9.20;;;6.47;;
20076;SDS011;12348;42.710;23.378;2022-09-09T12:12:07;11.83;;;6.73;;
20076;SDS011;12348;42.710;23.378;2022-09-09T12:14:54;10.53;;;6.10;;
20076;SDS011;12348;42.710;23.378;2022-09-09T12:17:43;7.60;;;6.07;;
20076;SDS011;12348;42.710;23.378;2022-09-09T12:20:13;8.60;;;5.73;;
20076;SDS011;12348;42.710;23.378;2022-09-09T12:22:45;12.83;;;7.23;;
20076;SDS011;12348;42.710;23.378;2022-09-09T12:25:45;9.57;;;6.93;;
20076;SDS011;12348;42.710;23.378;2022-09-09T12:28:21;10.10;;;6.53;;
20076;SDS011;12348;42.710;23.378;2022-09-09T12:30:55;8.60;;;5.97;;
20076;SDS011;12348;42.710;23.378;2022-09-09T12:33:33;11.60;;;6.83;;
20076;SDS011;12348;42.710;23.378;2022-09-09T12:36:00;7.73;;;5.70;;
20076;SDS011;12348;42.710;23.378;2022-09-09T12:38:30;7.33;;;5.37;;
20076;SDS011;12348;42.710;23.378;2022-09-09T12:41:00;7.00;;;5.57;;
20076;SDS011;12348;42.710;23.378;2022-09-09T12:43:29;8.50;;;5.73;;
20076;SDS011;12348;42.710;23.378;2022-09-09T12:45:56;12.53;;;5.67;;
20076;SDS011;12348;42.710;23.378;2022-09-09T12:48:31;9.40;;;6.27;;
20076;SDS011;12348;42.710;23.378;2022-09-09T12:51:01;7.83;;;5.77;;
20076;SDS011;12348;42.710;23.378;2022-09-09T12:53:31;10.90;;;6.70;;
20076;SDS011;12348;42.710;23.378;2022-09-09T12:56:00;10.30;;;7.93;;
20076;SDS011;12348;42.710;23.378;2022-09-09T12:58:31;9.20;;;7.30;;
20076;SDS011;12348;42.710;23.378;2022-09-09T13:01:00;8.47;;;6.30;;
20076;SDS011;12348;42.710;23.378;2022-09-09T13:03:28;10.83;;;6.87;;
20076;SDS011;12348;42.710;23.378;2022-09-09T13:05:57;8.17;;;6.20;;
20076;SDS011;12348;42.710;23.378;2022-09-09T13:08:26;8.17;;;6.03;;
20076;SDS011;12348;42.710;23.378;2022-09-09T13:10:54;9.33;;;6.93;;
20076;SDS011;12348;42.710;23.378;2022-09-09T13:13:25;8.73;;;6.33;;
20076;SDS011;12348;42.710;23.378;2022-09-09T13:15:56;11.10;;;7.90;;
20076;SDS011;12348;42.710;23.378;2022-09-09T13:18:26;11.73;;;6.50;;
20076;SDS011;12348;42.710;23.378;2022-09-09T13:20:55;12.07;;;7.83;;
20076;SDS011;12348;42.710;23.378;2022-09-09T13:23:25;12.10;;;8.67;;
20076;SDS011;12348;42.710;23.378;2022-09-09T13:25:54;10.67;;;7.43;;
20076;SDS011;12348;42.710;23.378;2022-09-09T13:28:23;11.43;;;7.70;;
20076;SDS011;12348;42.710;23.378;2022-09-09T13:30:59;10.23;;;7.10;;
20076;SDS011;12348;42.710;23.378;2022-09-09T13:33:31;7.30;;;6.23;;
20076;SDS011;12348;42.710;23.378;2022-09-09T13:36:00;14.57;;;7.77;;
20076;SDS011;12348;42.710;23.378;2022-09-09T13:38:40;7.87;;;7.00;;
20076;SDS011;12348;42.710;23.378;2022-09-09T13:41:20;9.47;;;7.50;;
20076;SDS011;12348;42.710;23.378;2022-09-09T13:43:49;10.17;;;7.77;;
20076;SDS011;12348;42.710;23.378;2022-09-09T13:46:26;9.23;;;7.37;;
20076;SDS011;12348;42.710;23.378;2022-09-09T13:48:58;14.63;;;9.60;;
20076;SDS011;12348;42.710;23.378;2022-09-09T13:51:29;12.97;;;6.87;;
20076;SDS011;12348;42.710;23.378;2022-09-09T13:54:02;7.40;;;6.00;;
20076;SDS011;12348;42.710;23.378;2022-09-09T13:56:30;9.90;;;5.83;;
20076;SDS011;12348;42.710;23.378;2022-09-09T13:58:57;10.03;;;6.60;;
20076;SDS011;12348;42.710;23.378;2022-09-09T14:01:25;10.80;;;6.93;;
20076;SDS011;12348;42.710;23.378;2022-09-09T14:03:53;9.37;;;7.90;;
20076;SDS011;12348;42.710;23.378;2022-09-09T14:06:20;8.77;;;6.10;;
20076;SDS011;12348;42.710;23.378;2022-09-09T14:08:48;10.77;;;6.67;;
20076;SDS011;12348;42.710;23.378;2022-09-09T14:11:16;11.90;;;6.67;;
20076;SDS011;12348;42.710;23.378;2022-09-09T14:13:44;11.47;;;6.73;;
20076;SDS011;12348;42.710;23.378;2022-09-09T14:16:11;9.70;;;5.87;;
20076;SDS011;12348;42.710;23.378;2022-09-09T14:18:40;12.60;;;7.00;;
20076;SDS011;12348;42.710;23.378;2022-09-09T14:21:07;7.93;;;6.17;;
20076;SDS011;12348;42.710;23.378;2022-09-09T14:23:34;11.33;;;6.57;;
20076;SDS011;12348;42.710;23.378;2022-09-09T14:26:01;6.23;;;5.30;;
20076;SDS011;12348;42.710;23.378;2022-09-09T14:28:27;9.50;;;6.03;;
20076;SDS011;12348;42.710;23.378;2022-09-09T14:30:54;9.83;;;6.23;;
20076;SDS011;12348;42.710;23.378;2022-09-09T14:33:21;6.40;;;5.27;;
20076;SDS011;12348;42.710;23.378;2022-09-09T14:35:56;11.83;;;7.43;;
20076;SDS011;12348;42.710;23.378;2022-09-09T14:38:23;10.73;;;6.63;;
20076;SDS011;12348;42.710;23.378;2022-09-09T14:40:50;9.23;;;6.70;;
20076;SDS011;12348;42.710;23.378;2022-09-09T14:43:18;10.17;;;7.13;;
20076;SDS011;12348;42.710;23.378;2022-09-09T14:45:45;8.63;;;5.47;;
20076;SDS011;12348;42.710;23.378;2022-09-09T14:48:13;6.87;;;6.00;;
20076;SDS011;12348;42.710;23.378;2022-09-09T14:50:39;7.63;;;6.23;;
20076;SDS011;12348;42.710;23.378;2022-09-09T14:53:08;10.67;;;6.23;;
20076;SDS011;12348;42.710;23.378;2022-09-09T14:55:37;11.53;;;6.20;;
20076;SDS011;12348;42.710;23.378;2022-09-09T14:58:04;10.97;;;7.17;;
20076;SDS011;12348;42.710;23.378;2022-09-09T15:00:32;11.83;;;7.50;;
20076;SDS011;12348;42.710;23.378;2022-09-09T15:02:59;8.17;;;4.80;;